createdAt,value
2023-03-22T00:00:05.456Z,10.09
2023-03-22T00:01:05.443Z,9.98
2023-03-22T00:02:05.436Z,10.09
2023-03-22T00:03:05.523Z,10.04
2023-03-22T00:04:05.524Z,10.01
2023-03-22T00:05:05.378Z,9.98
2023-03-22T00:06:05.380Z,9.99
2023-03-22T00:07:05.353Z,9.92
2023-03-22T00:08:05.341Z,9.78
2023-03-22T00:09:05.332Z,9.81
2023-03-22T00:10:05.315Z,9.89
2023-03-22T00:11:05.299Z,9.75
2023-03-22T00:12:05.291Z,9.78
2023-03-22T00:13:05.274Z,9.68
2023-03-22T00:14:05.262Z,9.70
2023-03-22T00:15:05.248Z,9.68
2023-03-22T00:16:05.344Z,9.75
2023-03-22T00:17:05.224Z,9.53
2023-03-22T00:18:05.211Z,9.52
2023-03-22T00:19:05.224Z,9.60
2023-03-22T00:20:05.178Z,9.55
2023-03-22T00:21:05.161Z,9.50
2023-03-22T00:22:05.148Z,9.62
2023-03-22T00:23:05.135Z,9.63
2023-03-22T00:24:05.121Z,9.41
2023-03-22T00:25:05.110Z,9.42
2023-03-22T00:26:05.089Z,9.45
2023-03-22T00:27:05.080Z,9.45
2023-03-22T00:28:05.066Z,9.48
2023-03-22T00:29:05.061Z,9.26
2023-03-22T00:30:05.041Z,9.32
2023-03-22T00:31:05.132Z,9.19
2023-03-22T00:32:05.015Z,9.23
2023-03-22T00:33:05.001Z,9.17
2023-03-22T00:34:04.987Z,9.22
2023-03-22T00:35:05.006Z,9.13
2023-03-22T00:36:04.954Z,9.23
2023-03-22T00:37:04.943Z,9.00
2023-03-22T00:38:04.932Z,9.12
2023-03-22T00:39:04.927Z,8.97
2023-03-22T00:40:04.979Z,9.04
2023-03-22T00:41:04.890Z,9.10
2023-03-22T00:42:04.894Z,8.83
2023-03-22T00:43:04.860Z,8.96
2023-03-22T00:44:04.853Z,8.86
2023-03-22T00:45:04.846Z,8.80
2023-03-22T00:46:04.911Z,8.78
2023-03-22T00:47:04.821Z,8.79
2023-03-22T00:48:04.855Z,8.82
2023-03-22T00:49:04.784Z,8.76
2023-03-22T00:50:04.770Z,8.55
2023-03-22T00:51:04.797Z,8.58
2023-03-22T00:52:04.741Z,8.71
2023-03-22T00:53:04.728Z,8.67
2023-03-22T00:54:04.708Z,8.64
2023-03-22T00:55:04.700Z,8.63
2023-03-22T00:56:04.696Z,8.60
2023-03-22T00:57:04.675Z,8.64
2023-03-22T00:58:04.666Z,8.49
2023-03-22T00:59:04.649Z,8.58
2023-03-22T01:00:04.627Z,8.57
2023-03-22T01:01:04.649Z,8.58
2023-03-22T01:02:04.601Z,8.57
2023-03-22T01:03:04.588Z,8.65
2023-03-22T01:04:04.578Z,8.58
2023-03-22T01:05:04.561Z,8.57
2023-03-22T01:06:04.553Z,8.39
2023-03-22T01:07:04.559Z,8.54
2023-03-22T01:08:04.522Z,8.36
2023-03-22T01:09:04.510Z,8.36
2023-03-22T01:10:04.495Z,8.34
2023-03-22T01:11:04.484Z,8.31
2023-03-22T01:12:04.472Z,8.28
2023-03-22T01:13:04.455Z,8.37
2023-03-22T01:14:04.439Z,8.29
2023-03-22T01:15:04.432Z,8.21
2023-03-22T01:16:04.431Z,8.09
2023-03-22T01:17:04.396Z,8.12
2023-03-22T01:18:04.385Z,8.02
2023-03-22T01:19:04.377Z,8.21
2023-03-22T01:20:04.354Z,8.10
2023-03-22T01:21:04.403Z,8.12
2023-03-22T01:22:04.326Z,7.91
2023-03-22T01:23:04.355Z,7.91
2023-03-22T01:24:04.307Z,7.99
2023-03-22T01:25:04.291Z,7.91
2023-03-22T01:26:04.280Z,7.95
2023-03-22T01:27:04.274Z,7.94
2023-03-22T01:28:04.242Z,7.79
2023-03-22T01:29:04.231Z,7.89
2023-03-22T01:30:04.233Z,7.88
2023-03-22T01:31:04.325Z,7.88
2023-03-22T01:32:04.221Z,7.85
2023-03-22T01:33:04.188Z,7.85
2023-03-22T01:34:04.188Z,7.86
2023-03-22T01:35:04.155Z,7.82
2023-03-22T01:36:04.202Z,7.79
2023-03-22T01:37:04.130Z,7.77
2023-03-22T01:38:04.131Z,7.70
2023-03-22T01:39:04.133Z,7.69
2023-03-22T01:40:04.084Z,7.66
2023-03-22T01:41:04.074Z,7.63
2023-03-22T01:42:04.057Z,7.63
2023-03-22T01:43:04.064Z,7.55
2023-03-22T01:44:04.029Z,7.50
2023-03-22T01:45:04.021Z,7.42
2023-03-22T01:46:04.041Z,7.51
2023-03-22T01:47:03.989Z,7.54
2023-03-22T01:48:04.066Z,7.42
2023-03-22T01:49:04.020Z,7.48
2023-03-22T01:50:03.955Z,7.44
2023-03-22T01:51:03.938Z,7.45
2023-03-22T01:52:03.937Z,7.47
2023-03-22T01:53:03.916Z,7.44
2023-03-22T01:54:03.917Z,7.32
2023-03-22T01:55:03.911Z,7.37
2023-03-22T01:56:03.880Z,7.33
2023-03-22T01:57:03.873Z,7.19
2023-03-22T01:58:03.839Z,7.29
2023-03-22T01:59:03.829Z,7.23
2023-03-22T02:00:03.822Z,7.23
2023-03-22T02:01:03.886Z,7.15
2023-03-22T02:02:03.798Z,7.21
2023-03-22T02:03:03.850Z,7.14
2023-03-22T02:04:03.772Z,7.18
2023-03-22T02:05:03.748Z,7.12
2023-03-22T02:06:03.730Z,7.12
2023-03-22T02:07:03.719Z,7.12
2023-03-22T02:08:03.705Z,7.12
2023-03-22T02:09:03.693Z,7.09
2023-03-22T02:10:03.685Z,7.05
2023-03-22T02:11:03.693Z,7.09
2023-03-22T02:12:03.654Z,6.94
2023-03-22T02:13:03.644Z,6.97
2023-03-22T02:14:03.626Z,6.91
2023-03-22T02:15:03.616Z,7.05
2023-03-22T02:16:03.616Z,6.90
2023-03-22T02:17:03.588Z,7.05
2023-03-22T02:18:03.571Z,7.00
2023-03-22T02:19:03.558Z,6.89
2023-03-22T02:20:03.546Z,6.96
2023-03-22T02:21:03.535Z,6.91
2023-03-22T02:22:03.519Z,6.89
2023-03-22T02:23:03.504Z,6.82
2023-03-22T02:24:03.495Z,6.91
2023-03-22T02:25:03.498Z,6.78
2023-03-22T02:26:03.463Z,6.79
2023-03-22T02:27:03.473Z,6.73
2023-03-22T02:28:03.440Z,6.79
2023-03-22T02:29:03.430Z,6.76
2023-03-22T02:30:03.412Z,6.76
2023-03-22T02:31:03.506Z,6.81
2023-03-22T02:32:03.375Z,6.75
2023-03-22T02:33:03.369Z,6.71
2023-03-22T02:34:03.355Z,6.63
2023-03-22T02:35:03.364Z,6.65
2023-03-22T02:36:03.324Z,6.68
2023-03-22T02:37:03.312Z,6.73
2023-03-22T02:38:03.306Z,6.58
2023-03-22T02:39:03.287Z,6.58
2023-03-22T02:40:03.270Z,6.53
2023-03-22T02:41:03.256Z,6.45
2023-03-22T02:42:03.254Z,6.53
2023-03-22T02:43:03.250Z,6.48
2023-03-22T02:44:03.218Z,6.46
2023-03-22T02:45:03.201Z,6.53
2023-03-22T02:46:03.187Z,6.54
2023-03-22T02:47:03.173Z,6.51
2023-03-22T02:48:03.241Z,6.60
2023-03-22T02:49:03.156Z,6.51
2023-03-22T02:50:03.133Z,6.45
2023-03-22T02:51:03.121Z,6.50
2023-03-22T02:52:03.111Z,6.53
2023-03-22T02:53:03.096Z,6.54
2023-03-22T02:54:03.094Z,6.36
2023-03-22T02:55:03.077Z,6.48
2023-03-22T02:56:03.104Z,6.50
2023-03-22T02:57:03.049Z,6.35
2023-03-22T02:58:03.225Z,6.36
2023-03-22T02:59:03.094Z,6.30
2023-03-22T03:00:02.998Z,6.30
2023-03-22T03:01:03.053Z,6.28
2023-03-22T03:02:03.030Z,6.32
2023-03-22T03:03:02.957Z,6.25
2023-03-22T03:04:02.941Z,6.30
2023-03-22T03:05:02.943Z,6.25
2023-03-22T03:06:02.944Z,6.35
2023-03-22T03:07:02.900Z,6.33
2023-03-22T03:08:02.896Z,6.32
2023-03-22T03:09:02.885Z,6.25
2023-03-22T03:10:02.857Z,6.13
2023-03-22T03:11:02.845Z,6.13
2023-03-22T03:12:02.829Z,6.13
2023-03-22T03:13:02.814Z,6.03
2023-03-22T03:14:02.801Z,6.10
2023-03-22T03:15:02.809Z,6.10
2023-03-22T03:16:03.002Z,5.95
2023-03-22T03:17:02.756Z,5.96
2023-03-22T03:18:02.748Z,6.02
2023-03-22T03:19:02.733Z,6.03
2023-03-22T03:20:02.724Z,5.99
2023-03-22T03:21:02.702Z,6.05
2023-03-22T03:22:02.744Z,5.93
2023-03-22T03:23:02.672Z,6.02
2023-03-22T03:24:02.671Z,5.93
2023-03-22T03:25:02.652Z,5.92
2023-03-22T03:26:02.649Z,5.98
2023-03-22T03:27:02.627Z,5.85
2023-03-22T03:28:02.619Z,5.90
2023-03-22T03:29:02.597Z,5.88
2023-03-22T03:30:02.603Z,5.88
2023-03-22T03:31:02.596Z,5.88
2023-03-22T03:32:02.566Z,5.85
2023-03-22T03:33:02.542Z,5.85
2023-03-22T03:34:02.529Z,5.95
2023-03-22T03:35:02.516Z,6.06
2023-03-22T03:36:02.501Z,5.93
2023-03-22T03:37:02.483Z,5.98
2023-03-22T03:38:02.476Z,6.01
2023-03-22T03:39:02.461Z,5.95
2023-03-22T03:40:02.451Z,5.98
2023-03-22T03:41:02.435Z,5.99
2023-03-22T03:42:02.423Z,5.87
2023-03-22T03:43:02.929Z,5.95
2023-03-22T03:44:02.410Z,5.88
2023-03-22T03:45:02.380Z,5.78
2023-03-22T03:46:02.684Z,5.84
2023-03-22T03:47:02.382Z,5.93
2023-03-22T03:48:02.418Z,5.92
2023-03-22T03:49:02.333Z,5.83
2023-03-22T03:50:02.341Z,5.88
2023-03-22T03:51:02.322Z,5.84
2023-03-22T03:52:02.286Z,5.81
2023-03-22T03:53:02.274Z,5.80
2023-03-22T03:54:02.256Z,5.77
2023-03-22T03:55:02.247Z,5.84
2023-03-22T03:56:02.248Z,5.81
2023-03-22T03:57:03.990Z,5.77
2023-03-22T03:58:02.239Z,5.60
2023-03-22T03:59:02.194Z,5.67
2023-03-22T04:00:02.287Z,5.66
2023-03-22T04:01:02.191Z,5.58
2023-03-22T04:02:02.237Z,5.70
2023-03-22T04:03:02.165Z,5.52
2023-03-22T04:04:02.188Z,5.69
2023-03-22T04:05:02.114Z,5.65
2023-03-22T04:06:02.110Z,5.60
2023-03-22T04:07:02.436Z,5.62
2023-03-22T04:08:02.277Z,5.65
2023-03-22T04:09:02.078Z,5.60
2023-03-22T04:10:02.196Z,5.59
2023-03-22T04:11:02.039Z,5.60
2023-03-22T04:12:02.024Z,5.59
2023-03-22T04:13:02.464Z,5.52
2023-03-22T04:14:02.298Z,5.56
2023-03-22T04:15:01.985Z,5.65
2023-03-22T04:16:02.322Z,5.47
2023-03-22T04:17:02.350Z,5.58
2023-03-22T04:18:01.957Z,5.47
2023-03-22T04:19:01.958Z,5.47
2023-03-22T04:20:03.615Z,5.42
2023-03-22T04:21:01.913Z,5.52
2023-03-22T04:22:01.896Z,5.41
2023-03-22T04:23:01.872Z,5.37
2023-03-22T04:24:01.885Z,5.41
2023-03-22T04:25:01.847Z,5.32
2023-03-22T04:26:01.840Z,5.37
2023-03-22T04:27:01.822Z,5.30
2023-03-22T04:28:01.811Z,5.22
2023-03-22T04:29:01.799Z,5.24
2023-03-22T04:30:01.783Z,5.22
2023-03-22T04:31:01.825Z,5.15
2023-03-22T04:32:01.761Z,5.06
2023-03-22T04:33:01.744Z,5.09
2023-03-22T04:34:01.728Z,5.15
2023-03-22T04:35:01.746Z,5.17
2023-03-22T04:36:04.424Z,5.12
2023-03-22T04:37:01.692Z,5.09
2023-03-22T04:38:01.683Z,5.09
2023-03-22T04:39:01.667Z,5.09
2023-03-22T04:40:01.643Z,4.96
2023-03-22T04:41:01.646Z,4.97
2023-03-22T04:42:01.617Z,4.90
2023-03-22T04:43:01.615Z,5.01
2023-03-22T04:44:01.595Z,5.02
2023-03-22T04:45:01.580Z,4.96
2023-03-22T04:46:01.614Z,4.90
2023-03-22T04:47:01.572Z,4.90
2023-03-22T04:48:01.611Z,4.97
2023-03-22T04:49:01.547Z,4.86
2023-03-22T04:50:01.520Z,4.90
2023-03-22T04:51:01.536Z,4.69
2023-03-22T04:52:01.503Z,4.80
2023-03-22T04:53:01.479Z,4.86
2023-03-22T04:54:01.463Z,4.87
2023-03-22T04:55:01.444Z,4.87
2023-03-22T04:56:01.433Z,4.91
2023-03-22T04:57:01.416Z,4.84
2023-03-22T04:58:01.428Z,4.79
2023-03-22T04:59:01.393Z,4.77
2023-03-22T05:00:01.376Z,4.79
2023-03-22T05:01:01.368Z,4.87
2023-03-22T05:02:01.505Z,4.86
2023-03-22T05:03:01.411Z,4.71
2023-03-22T05:04:01.330Z,4.72
2023-03-22T05:05:01.321Z,4.65
2023-03-22T05:06:01.301Z,4.61
2023-03-22T05:07:01.320Z,4.67
2023-03-22T05:08:01.317Z,4.65
2023-03-22T05:09:01.263Z,4.77
2023-03-22T05:10:01.598Z,4.54
2023-03-22T05:11:01.232Z,4.69
2023-03-22T05:12:01.224Z,4.65
2023-03-22T05:13:01.301Z,4.62
2023-03-22T05:14:01.187Z,4.71
2023-03-22T05:15:01.171Z,4.72
2023-03-22T05:16:01.213Z,4.67
2023-03-22T05:17:01.154Z,4.67
2023-03-22T05:18:01.281Z,4.68
2023-03-22T05:19:01.122Z,4.69
2023-03-22T05:20:01.123Z,4.57
2023-03-22T05:21:01.096Z,4.67
2023-03-22T05:22:01.076Z,4.59
2023-03-22T05:23:01.297Z,4.57
2023-03-22T05:24:01.058Z,4.54
2023-03-22T05:25:01.036Z,4.59
2023-03-22T05:26:01.028Z,4.53
2023-03-22T05:27:01.182Z,4.53
2023-03-22T05:28:01.308Z,4.53
2023-03-22T05:29:00.985Z,4.53
2023-03-22T05:30:00.972Z,4.54
2023-03-22T05:31:00.960Z,4.44
2023-03-22T05:32:00.943Z,4.54
2023-03-22T05:33:00.933Z,4.47
2023-03-22T05:34:00.920Z,4.43
2023-03-22T05:35:00.904Z,4.49
2023-03-22T05:36:00.887Z,4.56
2023-03-22T05:37:00.890Z,4.53
2023-03-22T05:38:00.863Z,4.59
2023-03-22T05:39:00.888Z,4.62
2023-03-22T05:40:00.832Z,4.68
2023-03-22T05:41:00.826Z,4.59
2023-03-22T05:42:00.807Z,4.74
2023-03-22T05:43:00.798Z,4.69
2023-03-22T05:44:00.783Z,4.74
2023-03-22T05:45:00.771Z,4.87
2023-03-22T05:46:00.765Z,4.91
2023-03-22T05:47:00.792Z,5.06
2023-03-22T05:48:00.800Z,5.11
2023-03-22T05:49:00.721Z,5.14
2023-03-22T05:50:00.701Z,5.14
2023-03-22T05:51:00.693Z,5.22
2023-03-22T05:52:00.682Z,5.32
2023-03-22T05:53:00.670Z,5.42
2023-03-22T05:54:00.645Z,5.52
2023-03-22T05:55:00.672Z,5.49
2023-03-22T05:56:00.673Z,5.56
2023-03-22T05:57:00.615Z,5.49
2023-03-22T05:58:00.595Z,5.59
2023-03-22T05:59:00.584Z,5.58
2023-03-22T06:00:00.573Z,5.63
2023-03-22T06:01:00.559Z,5.65
2023-03-22T06:02:00.579Z,5.88
2023-03-22T06:03:00.620Z,5.75
2023-03-22T06:04:00.558Z,5.85
2023-03-22T06:05:00.514Z,5.88
2023-03-22T06:06:00.496Z,5.95
2023-03-22T06:07:00.494Z,6.03
2023-03-22T06:08:00.469Z,6.11
2023-03-22T06:09:10.681Z,6.35
2023-03-22T06:10:01.476Z,6.42
2023-03-22T06:11:00.453Z,6.50
2023-03-22T06:12:00.416Z,6.63
2023-03-22T06:13:00.439Z,6.90
2023-03-22T06:14:00.384Z,7.18
2023-03-22T06:15:00.367Z,7.26
2023-03-22T06:16:00.351Z,7.21
2023-03-22T06:17:00.345Z,7.50
2023-03-22T06:18:00.325Z,7.60
2023-03-22T06:19:00.336Z,7.82
2023-03-22T06:20:00.305Z,8.02
2023-03-22T06:21:00.316Z,8.20
2023-03-22T06:22:00.272Z,8.47
2023-03-22T06:23:00.258Z,8.80
2023-03-22T06:24:00.251Z,9.08
2023-03-22T06:25:00.239Z,9.35
2023-03-22T06:26:00.241Z,9.44
2023-03-22T06:27:00.231Z,9.59
2023-03-22T06:28:00.191Z,9.89
2023-03-22T06:29:00.187Z,9.99
2023-03-22T06:30:00.182Z,10.31
2023-03-22T06:31:00.202Z,10.46
2023-03-22T06:32:00.143Z,10.68
2023-03-22T06:33:00.118Z,10.83
2023-03-22T06:34:00.124Z,11.13
2023-03-22T06:35:00.107Z,11.36
2023-03-22T06:36:00.074Z,11.45
2023-03-22T06:37:00.087Z,11.75
2023-03-22T06:38:00.043Z,11.97
2023-03-22T06:39:00.040Z,12.22
2023-03-22T06:40:00.028Z,12.25
2023-03-22T06:41:00.007Z,12.51
2023-03-22T06:41:59.987Z,12.85
2023-03-22T06:43:03.598Z,12.76
2023-03-22T06:43:59.967Z,12.69
2023-03-22T06:44:59.953Z,12.69
2023-03-22T06:46:00.211Z,12.63
2023-03-22T06:46:59.924Z,12.55
2023-03-22T06:47:59.996Z,12.74
2023-03-22T06:48:59.953Z,12.96
2023-03-22T06:49:59.969Z,13.17
2023-03-22T06:50:59.870Z,13.41
2023-03-22T06:51:59.856Z,13.47
2023-03-22T06:52:59.836Z,13.62
2023-03-22T06:53:59.830Z,13.79
2023-03-22T06:54:59.810Z,13.84
2023-03-22T06:55:59.802Z,13.76
2023-03-22T06:56:59.788Z,13.90
2023-03-22T06:57:59.772Z,13.90
2023-03-22T06:58:59.788Z,14.05
2023-03-22T06:59:59.744Z,13.75
2023-03-22T07:00:59.821Z,13.68
2023-03-22T07:01:59.721Z,13.83
2023-03-22T07:02:59.709Z,13.59
2023-03-22T07:03:59.822Z,13.54
2023-03-22T07:04:59.678Z,13.80
2023-03-22T07:05:59.681Z,13.99
2023-03-22T07:06:59.664Z,14.05
2023-03-22T07:07:59.631Z,14.02
2023-03-22T07:08:59.619Z,14.23
2023-03-22T07:09:59.612Z,14.42
2023-03-22T07:10:59.596Z,14.52
2023-03-22T07:11:59.580Z,14.59
2023-03-22T07:12:59.566Z,14.80
2023-03-22T07:13:59.552Z,15.18
2023-03-22T07:14:59.618Z,15.56
2023-03-22T07:15:59.583Z,15.77
2023-03-22T07:16:59.527Z,16.11
2023-03-22T07:17:59.500Z,16.10
2023-03-22T07:18:59.490Z,16.13
2023-03-22T07:19:59.471Z,16.40
2023-03-22T07:20:59.476Z,16.54
2023-03-22T07:21:59.443Z,16.54
2023-03-22T07:22:59.432Z,16.96
2023-03-22T07:23:59.427Z,17.07
2023-03-22T07:25:01.674Z,17.49
2023-03-22T07:25:59.399Z,17.73
2023-03-22T07:26:59.383Z,17.70
2023-03-22T07:27:59.376Z,17.83
2023-03-22T07:28:59.358Z,18.11
2023-03-22T07:29:59.338Z,18.20
2023-03-22T07:30:59.359Z,18.07
2023-03-22T07:31:59.403Z,18.10
2023-03-22T07:32:59.320Z,17.96
2023-03-22T07:33:59.280Z,17.94
2023-03-22T07:34:59.524Z,17.98
2023-03-22T07:35:59.335Z,18.04
2023-03-22T07:36:59.250Z,18.31
2023-03-22T07:37:59.234Z,18.26
2023-03-22T07:38:59.218Z,17.84
2023-03-22T07:39:59.204Z,17.98
2023-03-22T07:40:59.212Z,18.07
2023-03-22T07:41:59.177Z,18.11
2023-03-22T07:42:59.181Z,18.28
2023-03-22T07:44:14.766Z,18.50
2023-03-22T07:45:00.265Z,18.66
2023-03-22T07:45:59.138Z,18.93
2023-03-22T07:46:59.294Z,19.06
2023-03-22T07:47:59.547Z,18.87
2023-03-22T07:48:59.098Z,18.91
2023-03-22T07:49:59.074Z,19.20
2023-03-22T07:50:59.080Z,19.38
2023-03-22T07:51:59.093Z,19.55
2023-03-22T07:52:59.054Z,19.60
2023-03-22T07:53:59.039Z,19.47
2023-03-22T07:54:59.012Z,19.50
2023-03-22T07:55:59.000Z,19.46
2023-03-22T07:56:58.982Z,19.76
2023-03-22T07:57:58.978Z,19.45
2023-03-22T07:58:59.049Z,18.75
2023-03-22T07:59:58.945Z,18.07
2023-03-22T08:00:58.933Z,17.71
2023-03-22T08:01:58.950Z,17.32
2023-03-22T08:02:58.995Z,17.17
2023-03-22T08:03:58.899Z,16.78
2023-03-22T08:04:58.881Z,16.48
2023-03-22T08:05:58.878Z,16.25
2023-03-22T08:06:58.855Z,15.89
2023-03-22T08:07:58.850Z,15.62
2023-03-22T08:08:58.827Z,15.35
2023-03-22T08:09:59.319Z,15.19
2023-03-22T08:10:58.804Z,14.97
2023-03-22T08:11:58.787Z,14.90
2023-03-22T08:12:58.775Z,14.79
2023-03-22T08:13:58.763Z,14.69
2023-03-22T08:14:58.741Z,14.44
2023-03-22T08:15:58.961Z,14.54
2023-03-22T08:16:58.725Z,14.46
2023-03-22T08:17:58.698Z,14.42
2023-03-22T08:18:58.723Z,14.39
2023-03-22T08:19:58.682Z,14.36
2023-03-22T08:20:58.666Z,14.41
2023-03-22T08:21:58.648Z,14.46
2023-03-22T08:22:58.650Z,14.82
2023-03-22T08:23:58.616Z,15.58
2023-03-22T08:24:58.606Z,16.54
2023-03-22T08:25:58.609Z,17.30
2023-03-22T08:26:58.579Z,17.92
2023-03-22T08:27:58.583Z,18.53
2023-03-22T08:28:58.552Z,18.96
2023-03-22T08:29:58.592Z,19.38
2023-03-22T08:30:58.531Z,19.85
2023-03-22T08:31:58.566Z,20.37
2023-03-22T08:32:58.500Z,20.73
2023-03-22T08:33:58.489Z,21.24
2023-03-22T08:34:58.503Z,21.55
2023-03-22T08:35:58.495Z,21.55
2023-03-22T08:36:58.442Z,21.16
2023-03-22T08:37:58.437Z,20.87
2023-03-22T08:38:58.415Z,20.48
2023-03-22T08:39:58.457Z,20.63
2023-03-22T08:40:58.393Z,20.98
2023-03-22T08:41:58.379Z,21.46
2023-03-22T08:42:58.379Z,21.99
2023-03-22T08:43:58.370Z,22.59
2023-03-22T08:44:58.342Z,23.19
2023-03-22T08:45:58.356Z,23.41
2023-03-22T08:46:58.319Z,23.54
2023-03-22T08:47:58.306Z,23.78
2023-03-22T08:48:58.289Z,23.68
2023-03-22T08:49:58.273Z,23.92
2023-03-22T08:50:58.292Z,24.00
2023-03-22T08:51:58.244Z,23.53
2023-03-22T08:52:58.231Z,23.07
2023-03-22T08:53:58.213Z,22.93
2023-03-22T08:54:58.208Z,23.16
2023-03-22T08:55:58.250Z,22.75
2023-03-22T08:56:58.204Z,22.66
2023-03-22T08:57:58.168Z,22.42
2023-03-22T08:58:58.182Z,22.84
2023-03-22T08:59:58.141Z,23.42
2023-03-22T09:00:58.317Z,23.81
2023-03-22T09:01:58.457Z,23.14
2023-03-22T09:02:58.114Z,22.27
2023-03-22T09:03:58.261Z,22.08
2023-03-22T09:04:58.131Z,22.08
2023-03-22T09:05:58.055Z,22.70
2023-03-22T09:06:58.077Z,23.18
2023-03-22T09:08:05.848Z,23.62
2023-03-22T09:08:59.053Z,24.26
2023-03-22T09:09:58.010Z,24.00
2023-03-22T09:10:58.013Z,23.74
2023-03-22T09:11:57.981Z,24.18
2023-03-22T09:12:58.075Z,24.86
2023-03-22T09:13:58.155Z,25.56
2023-03-22T09:14:57.945Z,25.89
2023-03-22T09:15:58.009Z,26.42
2023-03-22T09:16:57.917Z,26.96
2023-03-22T09:17:58.212Z,27.30
2023-03-22T09:18:58.098Z,26.61
2023-03-22T09:20:11.433Z,25.30
2023-03-22T09:20:58.914Z,25.08
2023-03-22T09:21:57.880Z,24.59
2023-03-22T09:22:57.861Z,23.75
2023-03-22T09:23:57.905Z,23.72
2023-03-22T09:24:57.816Z,24.23
2023-03-22T09:25:57.809Z,23.97
2023-03-22T09:26:57.785Z,23.07
2023-03-22T09:27:58.078Z,22.85
2023-03-22T09:28:57.809Z,22.78
2023-03-22T09:29:57.751Z,23.37
2023-03-22T09:30:57.782Z,23.57
2023-03-22T09:31:57.730Z,23.69
2023-03-22T09:32:57.712Z,24.09
2023-03-22T09:33:57.833Z,23.12
2023-03-22T09:34:57.685Z,22.76
2023-03-22T09:35:57.707Z,23.04
2023-03-22T09:36:58.606Z,23.64
2023-03-22T09:37:57.653Z,23.63
2023-03-22T09:38:57.698Z,24.14
2023-03-22T09:39:57.620Z,24.92
2023-03-22T09:40:57.612Z,25.54
2023-03-22T09:41:57.598Z,26.19
2023-03-22T09:42:57.596Z,26.76
2023-03-22T09:43:57.724Z,27.02
2023-03-22T09:44:57.614Z,27.20
2023-03-22T09:45:57.570Z,26.75
2023-03-22T09:46:57.541Z,26.16
2023-03-22T09:47:57.564Z,25.48
2023-03-22T09:48:57.658Z,24.59
2023-03-22T09:49:57.803Z,23.69
2023-03-22T09:50:57.484Z,24.02
2023-03-22T09:51:57.493Z,23.54
2023-03-22T09:52:57.456Z,23.74
2023-03-22T09:53:57.451Z,23.68
2023-03-22T09:54:57.456Z,24.63
2023-03-22T09:55:57.438Z,25.59
2023-03-22T09:56:57.658Z,26.65
2023-03-22T09:57:57.400Z,27.09
2023-03-22T09:58:57.489Z,27.21
2023-03-22T09:59:57.370Z,26.86
2023-03-22T10:00:57.480Z,26.29
2023-03-22T10:01:57.649Z,25.76
2023-03-22T10:02:57.340Z,25.94
2023-03-22T10:03:57.576Z,26.17
2023-03-22T10:04:57.316Z,26.90
2023-03-22T10:05:57.319Z,27.63
2023-03-22T10:06:57.279Z,27.52
2023-03-22T10:07:57.273Z,27.38
2023-03-22T10:08:57.255Z,27.39
2023-03-22T10:09:57.256Z,27.15
2023-03-22T10:10:57.358Z,26.96
2023-03-22T10:11:57.230Z,26.56
2023-03-22T10:12:57.205Z,26.31
2023-03-22T10:13:57.204Z,26.44
2023-03-22T10:14:57.178Z,26.53
2023-03-22T10:15:57.297Z,26.73
2023-03-22T10:16:57.161Z,27.11
2023-03-22T10:17:57.156Z,26.17
2023-03-22T10:18:57.131Z,24.26
2023-03-22T10:19:57.119Z,23.15
2023-03-22T10:20:57.117Z,22.67
2023-03-22T10:21:57.696Z,22.69
2023-03-22T10:22:57.094Z,22.84
2023-03-22T10:23:57.081Z,22.85
2023-03-22T10:24:57.066Z,23.35
2023-03-22T10:25:57.047Z,24.14
2023-03-22T10:26:57.058Z,25.24
2023-03-22T10:27:57.975Z,25.96
2023-03-22T10:28:57.009Z,27.02
2023-03-22T10:29:57.003Z,26.36
2023-03-22T10:30:56.996Z,24.86
2023-03-22T10:31:57.161Z,25.31
2023-03-22T10:32:58.241Z,24.71
2023-03-22T10:33:56.959Z,24.19
2023-03-22T10:34:56.934Z,23.75
2023-03-22T10:35:57.056Z,23.47
2023-03-22T10:36:56.911Z,22.88
2023-03-22T10:37:56.895Z,22.82
2023-03-22T10:38:56.888Z,23.16
2023-03-22T10:39:56.872Z,23.49
2023-03-22T10:40:56.876Z,24.02
2023-03-22T10:41:58.063Z,24.11
2023-03-22T10:42:56.866Z,24.11
2023-03-22T10:43:56.827Z,24.04
2023-03-22T10:44:56.806Z,23.32
2023-03-22T10:45:56.821Z,22.96
2023-03-22T10:46:56.853Z,23.03
2023-03-22T10:47:56.836Z,23.16
2023-03-22T10:48:56.762Z,22.46
2023-03-22T10:49:56.887Z,22.42
2023-03-22T10:50:56.733Z,22.52
2023-03-22T10:51:56.717Z,22.35
2023-03-22T10:52:56.703Z,22.19
2023-03-22T10:53:56.696Z,22.31
2023-03-22T10:55:00.182Z,22.12
2023-03-22T10:55:56.689Z,21.71
2023-03-22T10:56:56.692Z,21.70
2023-03-22T10:57:56.642Z,21.73
2023-03-22T10:58:56.675Z,21.63
2023-03-22T10:59:56.628Z,21.06
2023-03-22T11:00:56.922Z,20.79
2023-03-22T11:01:56.848Z,20.69
2023-03-22T11:02:56.737Z,20.96
2023-03-22T11:03:56.565Z,21.30
2023-03-22T11:04:56.556Z,21.49
2023-03-22T11:05:56.539Z,21.70
2023-03-22T11:06:56.605Z,21.71
2023-03-22T11:07:56.520Z,21.98
2023-03-22T11:08:56.515Z,21.43
2023-03-22T11:09:56.494Z,21.27
2023-03-22T11:10:56.541Z,21.18
2023-03-22T11:11:56.480Z,21.18
2023-03-22T11:12:56.460Z,21.00
2023-03-22T11:13:56.441Z,20.85
2023-03-22T11:14:56.452Z,21.26
2023-03-22T11:15:56.421Z,21.55
2023-03-22T11:16:56.397Z,21.49
2023-03-22T11:17:56.386Z,21.53
2023-03-22T11:18:56.372Z,21.40
2023-03-22T11:19:56.408Z,21.91
2023-03-22T11:20:56.348Z,21.99
2023-03-22T11:21:56.337Z,21.91
2023-03-22T11:22:56.334Z,21.89
2023-03-22T11:23:56.314Z,22.01
2023-03-22T11:24:56.292Z,22.14
2023-03-22T11:25:56.285Z,22.21
2023-03-22T11:26:56.471Z,22.57
2023-03-22T11:27:56.306Z,23.04
2023-03-22T11:28:56.238Z,23.69
2023-03-22T11:29:56.235Z,24.30
2023-03-22T11:30:56.244Z,24.77
2023-03-22T11:31:56.486Z,25.46
2023-03-22T11:32:56.258Z,25.74
2023-03-22T11:33:56.172Z,26.13
2023-03-22T11:34:56.161Z,26.36
2023-03-22T11:35:56.244Z,26.84
2023-03-22T11:36:56.145Z,27.63
2023-03-22T11:37:56.141Z,28.30
2023-03-22T11:38:56.103Z,28.23
2023-03-22T11:39:56.091Z,28.39
2023-03-22T11:40:56.111Z,28.83
2023-03-22T11:41:56.073Z,28.50
2023-03-22T11:42:56.074Z,28.08
2023-03-22T11:43:56.047Z,28.23
2023-03-22T11:44:56.034Z,28.67
2023-03-22T11:45:56.072Z,28.79
2023-03-22T11:46:56.041Z,28.06
2023-03-22T11:47:56.097Z,26.28
2023-03-22T11:48:56.380Z,25.39
2023-03-22T11:49:55.972Z,25.29
2023-03-22T11:50:56.003Z,25.19
2023-03-22T11:51:55.944Z,24.60
2023-03-22T11:52:55.933Z,23.86
2023-03-22T11:53:55.923Z,23.60
2023-03-22T11:54:55.930Z,23.72
2023-03-22T11:55:55.911Z,23.97
2023-03-22T11:56:55.902Z,24.24
2023-03-22T11:57:55.915Z,24.23
2023-03-22T11:58:55.863Z,24.15
2023-03-22T11:59:55.838Z,24.05
2023-03-22T12:00:55.832Z,23.92
2023-03-22T12:01:55.815Z,24.48
2023-03-22T12:02:55.868Z,25.30
2023-03-22T12:03:55.970Z,25.30
2023-03-22T12:04:55.842Z,25.22
2023-03-22T12:05:55.785Z,25.26
2023-03-22T12:06:55.750Z,25.44
2023-03-22T12:07:55.735Z,25.72
2023-03-22T12:08:55.734Z,25.48
2023-03-22T12:09:55.723Z,25.34
2023-03-22T12:10:55.691Z,25.08
2023-03-22T12:11:55.685Z,25.26
2023-03-22T12:12:55.668Z,25.67
2023-03-22T12:13:55.666Z,25.22
2023-03-22T12:14:55.646Z,24.99
2023-03-22T12:15:55.722Z,25.11
2023-03-22T12:16:55.621Z,25.26
2023-03-22T12:17:55.673Z,25.75
2023-03-22T12:18:55.620Z,26.44
2023-03-22T12:19:55.582Z,26.09
2023-03-22T12:20:55.586Z,25.93
2023-03-22T12:21:55.555Z,25.83
2023-03-22T12:22:55.548Z,26.01
2023-03-22T12:23:55.530Z,26.49
2023-03-22T12:24:55.513Z,26.20
2023-03-22T12:25:55.499Z,25.27
2023-03-22T12:26:55.489Z,24.70
2023-03-22T12:27:55.480Z,23.74
2023-03-22T12:28:55.469Z,23.74
2023-03-22T12:29:55.455Z,24.30
2023-03-22T12:30:55.844Z,24.80
2023-03-22T12:31:55.509Z,24.31
2023-03-22T12:32:55.486Z,24.12
2023-03-22T12:33:55.411Z,24.14
2023-03-22T12:35:09.194Z,23.75
2023-03-22T12:35:56.433Z,23.78
2023-03-22T12:36:55.366Z,24.36
2023-03-22T12:37:55.370Z,25.12
2023-03-22T12:38:55.338Z,25.81
2023-03-22T12:39:55.332Z,26.21
2023-03-22T12:40:55.318Z,26.13
2023-03-22T12:41:55.304Z,25.93
2023-03-22T12:42:57.681Z,26.36
2023-03-22T12:43:55.277Z,26.36
2023-03-22T12:45:04.649Z,26.34
2023-03-22T12:45:56.283Z,26.71
2023-03-22T12:46:55.286Z,26.72
2023-03-22T12:47:55.351Z,26.76
2023-03-22T12:48:55.256Z,26.81
2023-03-22T12:49:55.233Z,27.48
2023-03-22T12:50:55.209Z,27.11
2023-03-22T12:51:55.183Z,26.96
2023-03-22T12:52:56.705Z,27.40
2023-03-22T12:53:55.161Z,27.46
2023-03-22T12:54:55.164Z,27.99
2023-03-22T12:55:55.131Z,28.28
2023-03-22T12:56:55.120Z,27.46
2023-03-22T12:57:55.106Z,26.79
2023-03-22T12:58:55.094Z,26.47
2023-03-22T12:59:55.074Z,25.46
2023-03-22T13:00:55.103Z,25.85
2023-03-22T13:01:55.049Z,26.51
2023-03-22T13:02:55.131Z,27.33
2023-03-22T13:03:55.300Z,28.09
2023-03-22T13:04:55.016Z,27.78